Список аэропортов
Фактическая погода:

23 февраля, 17:55
Температура: +12°C (+10.9*)
Ветер: южный 3 м/с
Давление: *777 мм
Без существ. явл.
Время (МСК)Темп. СВетерВлажностьДавлениеОблачностьОсадки
15:00+11ЮВ, 3 м/с64%1038 гПаясно
16:00+12ЮВ, 3 м/с62%1038 гПаясно
17:00+12ЮВ, 3 м/с59%1038 гПаясно
18:00+12ЮВ, 4 м/с58%1037 гПаясно
19:00+11ЮВ, 4 м/с58%1037 гПаясно
20:00+10ЮВ, 3 м/с61%1037 гПаясно
21:00+8В, 3 м/с70%1037 гПаясно
22:00+8В, 3 м/с73%1037 гПаясно
23:00+7ЮВ, 4 м/с74%1037 гПаясно
24 февраля
00:00+6ЮВ, 3 м/с70%1037 гПаясно
01:00+5ЮВ, 3 м/с70%1037 гПаясно
02:00+4ЮВ, 2 м/с75%1037 гПаясно
03:00+3ЮВ, 3 м/с78%1037 гПаясно
04:00+2ЮВ, 2 м/с81%1037 гПаясно
05:00+2ЮВ, 2 м/с85%1037 гПаясно
06:00+1В, 2 м/с87%1037 гПаясно
07:00+1ЮВ, 2 м/с88%1038 гПаясно
08:000ЮВ, 1 м/с89%1038 гПаясно
09:000ЮВ, 2 м/с88%1038 гПаясно
10:000ЮВ, 2 м/с87%1038 гПаясно
11:000ЮВ, 2 м/с84%1039 гПаясно
12:00+2ЮВ, 3 м/с70%1039 гПаясно
13:00+5ЮВ, 3 м/с55%1038 гПамалооблачно
14:00+7ЮВ, 2 м/с50%1039 гПас прояснениями
15:00+9ЮВ, 3 м/с48%1039 гПас прояснениями
16:00+11Ю, 2 м/с46%1039 гПас прояснениями
17:00+12Ю, 3 м/с46%1038 гПаоблачно
18:00+12ЮВ, 3 м/с47%1038 гПас прояснениями
19:00+12ЮВ, 2 м/с47%1038 гПаясно
20:00+10ЮВ, 2 м/с58%1038 гПаясно
21:00+8ЮВ, 2 м/с68%1038 гПаясно
22:00+7ЮВ, 2 м/с74%1038 гПаясно
23:00+5ЮВ, 2 м/с82%1038 гПаясно
25 февраля
00:00+4ЮВ, 2 м/с89%1038 гПаясно
01:00+3В, 1 м/с93%1038 гПаясно
02:00+3В, 2 м/с95%1038 гПаясно
03:00+2В, 2 м/с97%1038 гПаясно
04:00+2ЮВ, 2 м/с97%1038 гПамалооблачно
05:00+2ЮВ, 2 м/с96%1038 гПаясно
06:00+1ЮВ, 2 м/с94%1038 гПамалооблачно
07:00+1Ю, 1 м/с96%1039 гПамалооблачно
08:00+1Ю, 2 м/с97%1038 гПамалооблачно
09:000Ю, 1 м/с98%1039 гПаоблачно
10:000ЮВ, 2 м/с98%1039 гПаоблачно
11:000ЮВ, 2 м/с98%1039 гПаоблачно
12:00+5Ю, 2 м/с79%1039 гПаоблачно
13:00+8Ю, 2 м/с62%1039 гПаоблачно
14:00+11Ю, 2 м/с54%1039 гПас прояснениями
15:00+12Ю, 2 м/с50%1039 гПамалооблачно